createdAt,value
2018-12-13T00:00:46.446Z,-0.60
2018-12-13T00:03:13.917Z,-0.70
2018-12-13T00:05:41.364Z,-0.80
2018-12-13T00:08:08.842Z,-0.90
2018-12-13T00:10:36.396Z,-1.00
2018-12-13T00:13:03.868Z,-1.00
2018-12-13T00:15:31.320Z,-1.00
2018-12-13T00:17:58.784Z,-0.90
2018-12-13T00:20:26.302Z,-0.80
2018-12-13T00:22:53.960Z,-0.70
2018-12-13T00:25:21.407Z,-0.80
2018-12-13T00:27:49.017Z,-0.80
2018-12-13T00:30:16.470Z,-0.90
2018-12-13T00:32:43.933Z,-0.80
2018-12-13T00:35:11.505Z,-0.80
2018-12-13T00:37:38.965Z,-0.70
2018-12-13T00:40:06.752Z,-0.60
2018-12-13T00:42:34.226Z,-0.50
2018-12-13T00:45:01.678Z,-0.40
2018-12-13T00:47:29.133Z,-0.30
2018-12-13T00:49:56.606Z,-0.20
2018-12-13T00:52:24.057Z,-0.20
2018-12-13T00:54:51.526Z,-0.10
2018-12-13T00:57:18.980Z,-0.10
2018-12-13T00:59:46.451Z,0.00
2018-12-13T01:02:13.888Z,0.00
2018-12-13T01:04:41.353Z,0.00
2018-12-13T01:07:08.804Z,0.00
2018-12-13T01:09:36.264Z,0.00
2018-12-13T01:12:03.713Z,0.10
2018-12-13T01:14:31.284Z,0.10
2018-12-13T01:16:58.729Z,0.20
2018-12-13T01:19:26.188Z,0.20
2018-12-13T01:21:53.636Z,0.20
2018-12-13T01:24:21.165Z,0.20
2018-12-13T01:26:48.626Z,0.20
2018-12-13T01:29:16.086Z,0.20
2018-12-13T01:31:43.538Z,0.20
2018-12-13T01:34:10.980Z,0.20
2018-12-13T01:36:38.434Z,0.20
2018-12-13T01:39:06.053Z,0.10
2018-12-13T01:41:33.518Z,0.00
2018-12-13T01:44:00.961Z,0.00
2018-12-13T01:46:28.415Z,0.00
2018-12-13T01:48:55.872Z,-0.10
2018-12-13T01:51:23.489Z,-0.20
2018-12-13T01:53:50.988Z,-0.20
2018-12-13T01:56:18.452Z,-0.10
2018-12-13T01:58:45.908Z,-0.10
2018-12-13T02:01:13.368Z,-0.20
2018-12-13T02:03:40.820Z,-0.20
2018-12-13T02:06:08.284Z,-0.20
2018-12-13T02:08:35.736Z,-0.30
2018-12-13T02:11:03.290Z,-0.20
2018-12-13T02:13:30.739Z,-0.20
2018-12-13T02:15:58.220Z,-0.30
2018-12-13T02:18:25.664Z,-0.30
2018-12-13T02:20:53.122Z,-0.30
2018-12-13T02:23:20.572Z,-0.20
2018-12-13T02:25:48.033Z,-0.20
2018-12-13T02:28:15.496Z,-0.20
2018-12-13T02:30:42.957Z,-0.30
2018-12-13T02:33:10.435Z,-0.20
2018-12-13T02:35:37.883Z,-0.40
2018-12-13T02:38:05.349Z,-0.30
2018-12-13T02:40:32.866Z,-0.30
2018-12-13T02:43:00.328Z,-0.40
2018-12-13T02:45:27.787Z,-0.50
2018-12-13T02:47:55.245Z,-0.50
2018-12-13T02:50:22.697Z,-0.50
2018-12-13T02:52:50.164Z,-0.50
2018-12-13T02:55:17.618Z,-0.50
2018-12-13T02:57:45.088Z,-0.60
2018-12-13T03:00:12.883Z,-0.50
2018-12-13T03:02:40.353Z,-0.60
2018-12-13T03:05:07.876Z,-0.50
2018-12-13T03:07:35.345Z,-0.60
2018-12-13T03:10:02.969Z,-0.60
2018-12-13T03:12:30.434Z,-0.80
2018-12-13T03:14:57.906Z,-0.70
2018-12-13T03:17:25.361Z,-0.70
2018-12-13T03:19:52.840Z,-0.70
2018-12-13T03:22:20.292Z,-0.60
2018-12-13T03:24:47.757Z,-0.70
2018-12-13T03:27:15.236Z,-0.70
2018-12-13T03:29:42.793Z,-0.70
2018-12-13T03:32:10.767Z,-0.60
2018-12-13T03:34:38.245Z,-0.60
2018-12-13T03:37:05.688Z,-0.60
2018-12-13T03:39:33.169Z,-0.60
2018-12-13T03:42:00.795Z,-0.60
2018-12-13T03:44:28.264Z,-0.70
2018-12-13T03:46:55.726Z,-0.70
2018-12-13T03:49:23.192Z,-0.70
2018-12-13T03:51:50.656Z,-0.70
2018-12-13T03:54:18.133Z,-0.70
2018-12-13T03:56:45.592Z,-0.70
2018-12-13T03:59:13.077Z,-0.70
2018-12-13T04:01:40.557Z,-0.70
2018-12-13T04:04:08.015Z,-0.70
2018-12-13T04:06:35.494Z,-0.70
2018-12-13T04:09:03.480Z,-0.80
2018-12-13T04:11:30.949Z,-0.80
2018-12-13T04:13:58.401Z,-0.80
2018-12-13T04:16:25.861Z,-0.80
2018-12-13T04:18:53.313Z,-0.80
2018-12-13T04:21:20.787Z,-1.00
2018-12-13T04:23:48.242Z,-1.00
2018-12-13T04:26:15.708Z,-1.20
2018-12-13T04:28:43.156Z,-1.10
2018-12-13T04:31:10.625Z,-1.10
2018-12-13T04:33:38.072Z,-1.10
2018-12-13T04:36:05.626Z,-1.00
2018-12-13T04:38:33.112Z,-1.00
2018-12-13T04:41:00.582Z,-0.80
2018-12-13T04:43:28.057Z,-0.80
2018-12-13T04:45:55.512Z,-0.70
2018-12-13T04:48:22.997Z,-0.70
2018-12-13T04:50:50.449Z,-0.70
2018-12-13T04:53:17.976Z,-0.70
2018-12-13T04:55:45.508Z,-0.80
2018-12-13T04:58:12.985Z,-0.70
2018-12-13T05:00:40.436Z,-0.80
2018-12-13T05:03:07.913Z,-0.90
2018-12-13T05:05:35.368Z,-0.90
2018-12-13T05:08:02.837Z,-0.90
2018-12-13T05:10:42.349Z,-0.90
2018-12-13T05:13:09.828Z,-1.00
2018-12-13T05:15:37.276Z,-1.00
2018-12-13T05:18:04.832Z,-1.00
2018-12-13T05:20:32.293Z,-1.00
2018-12-13T05:22:59.761Z,-1.10
2018-12-13T05:25:27.221Z,-1.10
2018-12-13T05:27:54.692Z,-1.20
2018-12-13T05:30:22.148Z,-1.10
2018-12-13T05:32:49.616Z,-1.10
2018-12-13T05:35:17.083Z,-1.00
2018-12-13T05:37:48.250Z,-1.00
2018-12-13T05:40:14.004Z,-1.00
2018-12-13T05:42:41.476Z,-0.90
2018-12-13T05:45:09.067Z,-0.90
2018-12-13T05:47:36.717Z,-1.00
2018-12-13T05:50:04.506Z,-1.00
2018-12-13T05:52:31.971Z,-1.10
2018-12-13T05:54:59.429Z,-1.00
2018-12-13T05:57:26.901Z,-1.00
2018-12-13T05:59:54.460Z,-1.00
2018-12-13T06:02:21.930Z,-1.00
2018-12-13T06:04:49.389Z,-0.90
2018-12-13T06:07:16.867Z,-1.00
2018-12-13T06:09:44.321Z,-1.00
2018-12-13T06:12:11.793Z,-1.10
2018-12-13T06:14:39.249Z,-1.10
2018-12-13T06:17:06.719Z,-1.20
2018-12-13T06:19:34.177Z,-1.20
2018-12-13T06:22:01.639Z,-1.20
2018-12-13T06:24:29.110Z,-1.30
2018-12-13T06:26:56.580Z,-1.20
2018-12-13T06:29:24.047Z,-1.20
2018-12-13T06:31:51.514Z,-1.30
2018-12-13T06:34:18.980Z,-1.30
2018-12-13T06:36:46.460Z,-1.20
2018-12-13T06:39:13.934Z,-1.20
2018-12-13T06:41:41.388Z,-1.20
2018-12-13T06:44:08.852Z,-1.20
2018-12-13T06:46:36.309Z,-1.20
2018-12-13T06:49:03.774Z,-1.10
2018-12-13T06:51:31.231Z,-1.10
2018-12-13T06:53:58.699Z,-1.10
2018-12-13T06:56:26.321Z,-1.20
2018-12-13T06:58:53.790Z,-1.20
2018-12-13T07:01:21.244Z,-1.20
2018-12-13T07:03:48.713Z,-1.10
2018-12-13T07:06:16.169Z,-1.10
2018-12-13T07:08:43.753Z,-1.10
2018-12-13T07:11:11.222Z,-1.10
2018-12-13T07:13:38.688Z,-1.00
2018-12-13T07:16:06.144Z,-1.00
2018-12-13T07:18:33.620Z,-1.00
2018-12-13T07:21:01.077Z,-1.00
2018-12-13T07:23:30.489Z,-1.00
2018-12-13T07:25:57.949Z,-0.90
2018-12-13T07:28:25.412Z,-0.90
2018-12-13T07:30:52.972Z,-1.00
2018-12-13T07:33:20.452Z,-1.00
2018-12-13T07:35:47.992Z,-1.00
2018-12-13T07:38:15.464Z,-0.90
2018-12-13T07:40:42.984Z,-0.90
2018-12-13T07:43:10.560Z,-0.90
2018-12-13T07:45:38.020Z,-0.90
2018-12-13T07:48:05.495Z,-0.90
2018-12-13T07:50:32.966Z,-0.90
2018-12-13T07:53:00.416Z,-0.80
2018-12-13T07:55:27.897Z,-0.90
2018-12-13T07:57:55.468Z,-0.80
2018-12-13T08:00:22.942Z,-0.80
2018-12-13T08:02:50.405Z,-0.80
2018-12-13T08:05:17.940Z,-0.80
2018-12-13T08:07:45.408Z,-0.80
2018-12-13T08:10:12.896Z,-0.80
2018-12-13T08:12:40.352Z,-0.70
2018-12-13T08:15:07.897Z,-0.70
2018-12-13T08:17:35.350Z,-0.60
2018-12-13T08:20:03.185Z,-0.60
2018-12-13T08:22:30.636Z,-0.50
2018-12-13T08:24:58.112Z,-0.50
2018-12-13T08:27:26.547Z,-0.50
2018-12-13T08:29:54.019Z,-0.40
2018-12-13T08:32:21.471Z,-0.40
2018-12-13T08:34:48.942Z,-0.30
2018-12-13T08:37:16.396Z,-0.30
2018-12-13T08:39:43.871Z,-0.20
2018-12-13T08:42:11.324Z,-0.20
2018-12-13T08:44:38.797Z,-0.10
2018-12-13T08:47:07.210Z,0.00
2018-12-13T08:49:34.676Z,0.00
2018-12-13T08:52:02.127Z,0.00
2018-12-13T08:54:29.637Z,0.10
2018-12-13T08:56:57.088Z,0.10
2018-12-13T08:59:24.560Z,0.20
2018-12-13T09:01:52.840Z,0.10
2018-12-13T09:04:20.616Z,0.20
2018-12-13T09:06:48.068Z,0.30
2018-12-13T09:09:15.533Z,0.40
2018-12-13T09:11:42.985Z,0.50
2018-12-13T09:14:10.444Z,0.60
2018-12-13T09:16:37.929Z,0.60
2018-12-13T09:19:05.388Z,0.60
2018-12-13T09:21:32.859Z,0.60
2018-12-13T09:24:00.416Z,0.60
2018-12-13T09:26:27.873Z,0.70
2018-12-13T09:28:55.322Z,0.70
2018-12-13T09:31:22.784Z,0.80
2018-12-13T09:33:50.243Z,0.80
2018-12-13T09:36:17.781Z,0.90
2018-12-13T09:38:45.228Z,0.90
2018-12-13T09:41:12.800Z,1.00
2018-12-13T09:43:40.249Z,-0.10
2018-12-13T09:46:07.714Z,1.10
2018-12-13T09:48:35.213Z,1.10
2018-12-13T09:51:02.679Z,1.10
2018-12-13T09:53:30.128Z,1.10
2018-12-13T09:55:57.594Z,1.00
2018-12-13T09:58:25.049Z,1.10
2018-12-13T10:00:52.524Z,1.00
2018-12-13T10:03:19.976Z,1.00
2018-12-13T10:05:47.441Z,1.10
2018-12-13T10:08:14.891Z,1.20
2018-12-13T10:10:42.468Z,1.30
2018-12-13T10:13:10.806Z,1.20
2018-12-13T10:15:38.491Z,1.40
2018-12-13T10:18:05.935Z,1.40
2018-12-13T10:20:33.400Z,1.20
2018-12-13T10:23:00.849Z,1.20
2018-12-13T10:25:28.317Z,1.10
2018-12-13T10:27:55.765Z,1.20
2018-12-13T10:30:23.235Z,1.20
2018-12-13T10:32:50.757Z,1.30
2018-12-13T10:35:18.218Z,1.30
2018-12-13T10:37:45.952Z,1.40
2018-12-13T10:40:13.424Z,1.40
2018-12-13T10:42:40.876Z,1.40
2018-12-13T10:45:08.923Z,1.30
2018-12-13T10:47:36.394Z,1.30
2018-12-13T10:50:05.483Z,1.40
2018-12-13T10:52:32.944Z,1.40
2018-12-13T10:55:00.397Z,1.40
2018-12-13T10:57:27.857Z,1.40
2018-12-13T10:59:55.303Z,1.40
2018-12-13T11:02:28.385Z,1.40
2018-12-13T11:04:55.844Z,1.50
2018-12-13T11:07:23.304Z,1.70
2018-12-13T11:09:50.748Z,1.80
2018-12-13T11:12:18.209Z,2.00
2018-12-13T11:14:45.660Z,2.20
2018-12-13T11:17:13.145Z,2.20
2018-12-13T11:19:40.584Z,2.20
2018-12-13T11:22:08.058Z,2.10
2018-12-13T11:24:35.749Z,2.10
2018-12-13T11:30:25.480Z,2.00
2018-12-13T11:32:52.958Z,1.90
2018-12-13T11:35:20.433Z,2.00
2018-12-13T11:37:47.892Z,2.00
2018-12-13T11:40:15.365Z,2.10
2018-12-13T11:42:42.835Z,2.10
2018-12-13T11:45:10.472Z,2.10
2018-12-13T11:47:37.947Z,2.10
2018-12-13T11:50:05.684Z,2.10
2018-12-13T11:52:33.165Z,2.00
2018-12-13T11:58:01.801Z,2.20
2018-12-13T12:00:29.341Z,2.50
2018-12-13T12:02:56.797Z,2.50
2018-12-13T12:05:24.533Z,2.30
2018-12-13T12:07:51.993Z,2.00
2018-12-13T12:10:19.464Z,1.80
2018-12-13T12:12:46.925Z,1.80
2018-12-13T12:15:14.468Z,1.90
2018-12-13T12:17:41.933Z,1.70
2018-12-13T12:20:09.481Z,1.70
2018-12-13T12:22:36.932Z,1.60
2018-12-13T12:25:05.651Z,1.50
2018-12-13T12:27:33.178Z,1.50
2018-12-13T12:30:00.658Z,1.50
2018-12-13T12:32:28.189Z,1.50
2018-12-13T12:34:55.660Z,1.50
2018-12-13T12:37:23.140Z,1.70
2018-12-13T12:39:50.635Z,1.70
2018-12-13T12:42:18.098Z,1.70
2018-12-13T12:44:45.572Z,1.60
2018-12-13T12:47:13.028Z,1.70
2018-12-13T12:49:40.505Z,1.70
2018-12-13T12:52:07.963Z,1.60
2018-12-13T12:54:35.440Z,1.60
2018-12-13T12:57:02.905Z,1.60
2018-12-13T12:59:30.376Z,1.50
2018-12-13T13:01:57.849Z,1.60
2018-12-13T13:04:25.600Z,1.60
2018-12-13T13:06:53.057Z,1.60
2018-12-13T13:09:25.045Z,1.60
2018-12-13T13:11:50.011Z,1.50
2018-12-13T13:14:17.487Z,1.40
2018-12-13T13:16:44.948Z,1.40
2018-12-13T13:19:12.424Z,1.30
2018-12-13T13:21:39.885Z,1.30
2018-12-13T13:24:07.365Z,1.30
2018-12-13T13:26:34.838Z,1.30
2018-12-13T13:29:02.383Z,1.30
2018-12-13T13:31:29.916Z,1.30
2018-12-13T13:33:57.472Z,1.30
2018-12-13T13:36:25.080Z,1.30
2018-12-13T13:38:52.546Z,1.30
2018-12-13T13:41:20.020Z,1.30
2018-12-13T13:43:47.493Z,1.30
2018-12-13T13:46:14.963Z,1.30
2018-12-13T13:48:42.445Z,1.10
2018-12-13T13:51:09.985Z,1.20
2018-12-13T13:53:37.449Z,1.20
2018-12-13T13:56:04.928Z,1.10
2018-12-13T13:58:32.388Z,1.10
2018-12-13T14:00:59.865Z,1.10
2018-12-13T14:03:27.325Z,1.10
2018-12-13T14:05:54.800Z,1.10
2018-12-13T14:08:22.273Z,1.10
2018-12-13T14:10:49.740Z,1.00
2018-12-13T14:13:17.224Z,1.10
2018-12-13T14:15:44.702Z,1.20
2018-12-13T14:18:12.167Z,1.00
2018-12-13T14:20:39.640Z,1.00
2018-12-13T14:23:07.098Z,1.10
2018-12-13T14:25:34.569Z,1.10
2018-12-13T14:28:02.041Z,1.00
2018-12-13T14:30:29.525Z,1.00
2018-12-13T14:32:56.984Z,1.00
2018-12-13T14:35:24.448Z,1.00
2018-12-13T14:37:51.912Z,0.90
2018-12-13T14:40:19.394Z,0.90
2018-12-13T14:42:46.847Z,0.90
2018-12-13T14:45:15.265Z,1.00
2018-12-13T14:47:42.728Z,0.90
2018-12-13T14:50:10.216Z,0.90
2018-12-13T14:52:37.665Z,0.80
2018-12-13T14:55:05.276Z,0.80
2018-12-13T14:57:32.732Z,0.80
2018-12-13T15:00:00.327Z,0.80
2018-12-13T15:02:27.860Z,0.80
2018-12-13T15:04:55.709Z,0.80
2018-12-13T15:07:23.185Z,0.80
2018-12-13T15:09:51.219Z,0.80
2018-12-13T15:12:18.828Z,0.80
2018-12-13T15:14:46.296Z,0.80
2018-12-13T15:17:13.771Z,0.80
2018-12-13T15:19:41.229Z,0.80
2018-12-13T15:22:08.705Z,0.70
2018-12-13T15:24:36.181Z,0.70
2018-12-13T15:27:03.665Z,0.80
2018-12-13T15:29:31.121Z,0.70
2018-12-13T15:31:59.461Z,0.70
2018-12-13T15:34:27.429Z,0.70
2018-12-13T15:36:54.901Z,0.70
2018-12-13T15:39:22.375Z,0.70
2018-12-13T15:41:49.857Z,0.80
2018-12-13T15:44:17.315Z,0.80
2018-12-13T15:46:44.797Z,0.80
2018-12-13T15:49:12.252Z,0.70
2018-12-13T15:51:39.768Z,0.70
2018-12-13T15:54:07.219Z,0.70
2018-12-13T15:56:34.699Z,0.70
2018-12-13T15:59:02.160Z,0.70
2018-12-13T16:01:29.637Z,0.80
2018-12-13T16:03:57.336Z,0.70
2018-12-13T16:06:25.129Z,0.70
2018-12-13T16:08:52.588Z,0.70
2018-12-13T16:11:20.074Z,0.70
2018-12-13T16:13:47.528Z,0.70
2018-12-13T16:16:15.140Z,0.70
2018-12-13T16:18:42.611Z,0.70
2018-12-13T16:21:10.094Z,0.70
2018-12-13T16:23:37.556Z,0.70
2018-12-13T16:26:05.036Z,0.60
2018-12-13T16:28:33.021Z,0.60
2018-12-13T16:31:00.491Z,0.60
2018-12-13T16:33:27.968Z,0.60
2018-12-13T16:35:55.480Z,0.70
2018-12-13T16:38:23.002Z,0.70
2018-12-13T16:40:50.468Z,0.70
2018-12-13T16:43:18.047Z,0.70
2018-12-13T16:45:45.504Z,0.70
2018-12-13T16:48:12.986Z,0.70
2018-12-13T16:50:40.442Z,0.70
2018-12-13T16:53:07.917Z,0.70
2018-12-13T16:55:35.384Z,0.70
2018-12-13T16:58:02.869Z,0.70
2018-12-13T17:00:30.329Z,0.70
2018-12-13T17:02:57.801Z,0.60
2018-12-13T17:05:25.264Z,0.60
2018-12-13T17:07:52.746Z,0.60
2018-12-13T17:10:20.274Z,0.60
2018-12-13T17:12:47.749Z,0.60
2018-12-13T17:15:15.209Z,0.60
2018-12-13T17:17:42.713Z,0.60
2018-12-13T17:20:10.184Z,0.70
2018-12-13T17:22:37.693Z,0.70
2018-12-13T17:25:05.152Z,0.60
2018-12-13T17:27:32.636Z,0.70
2018-12-13T17:30:00.097Z,0.60
2018-12-13T17:32:27.600Z,0.70
2018-12-13T17:34:55.061Z,0.70
2018-12-13T17:37:22.546Z,0.80
2018-12-13T17:39:50.006Z,0.70
2018-12-13T17:42:17.481Z,0.80
2018-12-13T17:44:44.947Z,0.70
2018-12-13T17:47:12.420Z,0.60
2018-12-13T17:49:43.356Z,0.70
2018-12-13T17:52:11.460Z,0.70
2018-12-13T17:54:38.920Z,0.70
2018-12-13T17:57:06.380Z,0.70
2018-12-13T17:59:33.880Z,0.60
2018-12-13T18:02:02.861Z,0.50
2018-12-13T18:04:30.436Z,0.60
2018-12-13T18:07:00.397Z,0.60
2018-12-13T18:09:27.933Z,0.60
2018-12-13T18:11:55.397Z,0.70
2018-12-13T18:14:22.891Z,0.70
2018-12-13T18:16:50.352Z,0.60
2018-12-13T18:19:17.827Z,0.60
2018-12-13T18:21:45.388Z,0.60
2018-12-13T18:24:12.872Z,0.60
2018-12-13T18:26:40.332Z,0.60
2018-12-13T18:29:07.804Z,0.50
2018-12-13T18:31:35.269Z,0.60
2018-12-13T18:34:02.740Z,0.60
2018-12-13T18:36:30.204Z,0.70
2018-12-13T18:38:57.682Z,0.70
2018-12-13T18:41:25.137Z,0.80
2018-12-13T18:43:52.873Z,0.80
2018-12-13T18:46:20.328Z,0.80
2018-12-13T18:48:47.833Z,0.70
2018-12-13T18:51:15.327Z,0.70
2018-12-13T18:53:42.804Z,0.60
2018-12-13T18:56:10.264Z,0.70
2018-12-13T18:58:37.771Z,0.70
2018-12-13T19:01:05.444Z,0.70
2018-12-13T19:03:33.009Z,0.70
2018-12-13T19:06:00.490Z,0.60
2018-12-13T19:08:28.239Z,0.60
2018-12-13T19:10:56.023Z,0.60
2018-12-13T19:13:23.498Z,0.70
2018-12-13T19:15:50.968Z,0.70
2018-12-13T19:18:18.444Z,0.60
2018-12-13T19:20:45.901Z,0.60
2018-12-13T19:23:13.377Z,0.60
2018-12-13T19:25:40.840Z,0.70
2018-12-13T19:28:08.392Z,0.70
2018-12-13T19:30:35.864Z,0.70
2018-12-13T19:33:03.392Z,0.80
2018-12-13T19:35:31.056Z,0.70
2018-12-13T19:37:58.509Z,0.70
2018-12-13T19:40:25.984Z,0.60
2018-12-13T19:42:53.441Z,0.80
2018-12-13T19:45:20.917Z,0.80
2018-12-13T19:47:48.374Z,0.70
2018-12-13T19:50:15.844Z,0.70
2018-12-13T19:52:43.296Z,0.70
2018-12-13T19:55:10.775Z,0.60
2018-12-13T19:57:38.238Z,0.60
2018-12-13T20:00:07.952Z,0.70
2018-12-13T20:02:35.461Z,0.70
2018-12-13T20:05:03.307Z,0.80
2018-12-13T20:07:30.764Z,0.80
2018-12-13T20:09:58.235Z,0.80
2018-12-13T20:12:25.774Z,0.80
2018-12-13T20:14:53.244Z,0.70
2018-12-13T20:17:20.700Z,0.70
2018-12-13T20:19:48.172Z,0.70
2018-12-13T20:22:15.637Z,0.60
2018-12-13T20:24:43.179Z,0.60
2018-12-13T20:27:10.639Z,0.70
2018-12-13T20:29:38.277Z,0.70
2018-12-13T20:32:05.736Z,0.70
2018-12-13T20:34:33.208Z,0.80
2018-12-13T20:37:00.677Z,0.80
2018-12-13T20:39:28.182Z,0.80
2018-12-13T20:41:55.633Z,0.80
2018-12-13T20:44:23.100Z,0.80
2018-12-13T20:46:50.575Z,0.90
2018-12-13T20:49:18.045Z,0.80
2018-12-13T20:51:45.715Z,0.90
2018-12-13T20:54:13.341Z,0.70
2018-12-13T20:56:40.799Z,0.70
2018-12-13T20:59:08.272Z,0.70
2018-12-13T21:01:35.733Z,0.70
2018-12-13T21:04:03.249Z,0.70
2018-12-13T21:06:30.703Z,0.70
2018-12-13T21:08:58.175Z,0.70
2018-12-13T21:11:25.940Z,0.70
2018-12-13T21:13:53.402Z,0.80
2018-12-13T21:16:20.869Z,0.80
2018-12-13T21:18:48.394Z,0.70
2018-12-13T21:21:15.871Z,0.70
2018-12-13T21:23:43.405Z,0.60
2018-12-13T21:26:10.880Z,0.70
2018-12-13T21:28:38.337Z,0.80
2018-12-13T21:31:05.808Z,0.70
2018-12-13T21:33:33.285Z,0.80
2018-12-13T21:36:00.748Z,0.80
2018-12-13T21:38:28.209Z,0.80
2018-12-13T21:40:55.685Z,0.80
2018-12-13T21:43:23.145Z,0.80
2018-12-13T21:45:50.624Z,0.70
2018-12-13T21:48:18.084Z,2.70
2018-12-13T21:50:45.554Z,0.60
2018-12-13T21:53:13.012Z,0.70
2018-12-13T21:55:40.487Z,0.70
2018-12-13T21:58:07.945Z,0.70
2018-12-13T22:00:35.417Z,0.70
2018-12-13T22:03:02.901Z,0.60
2018-12-13T22:05:30.364Z,0.60
2018-12-13T22:07:57.834Z,0.60
2018-12-13T22:10:25.287Z,0.60
2018-12-13T22:12:52.757Z,0.60
2018-12-13T22:15:20.218Z,0.60
2018-12-13T22:17:47.684Z,0.60
2018-12-13T22:20:15.149Z,0.60
2018-12-13T22:22:42.609Z,0.60
2018-12-13T22:25:10.093Z,0.60
2018-12-13T22:27:37.568Z,0.50
2018-12-13T22:30:05.874Z,0.60
2018-12-13T22:32:33.344Z,0.60
2018-12-13T22:35:00.796Z,0.60
2018-12-13T22:37:28.269Z,0.50
2018-12-13T22:39:55.734Z,0.50
2018-12-13T22:42:23.215Z,0.50
2018-12-13T22:44:50.668Z,0.60
2018-12-13T22:47:18.777Z,0.60
2018-12-13T22:49:46.257Z,0.50
2018-12-13T22:52:13.714Z,0.60
2018-12-13T22:54:41.732Z,0.50
2018-12-13T22:57:09.184Z,0.50
2018-12-13T22:59:36.687Z,0.50
2018-12-13T23:02:04.222Z,0.50
2018-12-13T23:04:31.704Z,0.50
2018-12-13T23:06:59.152Z,0.60
2018-12-13T23:09:26.620Z,0.50
2018-12-13T23:11:54.076Z,0.50
2018-12-13T23:14:21.545Z,0.50
2018-12-13T23:16:49.004Z,0.50
2018-12-13T23:19:16.489Z,0.50
2018-12-13T23:21:44.033Z,0.50
2018-12-13T23:24:11.506Z,0.50
2018-12-13T23:26:38.977Z,0.60
2018-12-13T23:29:06.456Z,0.60
2018-12-13T23:31:33.915Z,0.60
2018-12-13T23:34:01.383Z,0.60
2018-12-13T23:36:29.301Z,0.60
2018-12-13T23:38:56.784Z,0.50
2018-12-13T23:41:24.256Z,0.60
2018-12-13T23:43:51.724Z,0.50
2018-12-13T23:46:19.199Z,0.50
2018-12-13T23:48:46.653Z,0.50
2018-12-13T23:51:14.205Z,0.50
2018-12-13T23:53:41.719Z,0.50
2018-12-13T23:56:09.192Z,0.50
2018-12-13T23:58:37.461Z,0.50
